• Join FlightAware (Why Join?)
  • Login
  • US Flag 
02:37AM EDT


 

Airport Tracker/Info


-or-


 

Live Flight TrackerFlight Track Log ✈ CMP251 ✈ 18-May-2013 ✈ MPTO / PTY - SVVA / VLN

Flight Track Log - Related Links

Times and Time Zones

All times are in EDT time to prevent confusion due to time zone crossing. See the CMP251 flight status page for this flight to view local times or setup timezone preferences in your user account.

Time Position Orientation Groundspeed Altitude Reporting Facility
EDT Latitude Longitude Course Direction KTS MPH feet Rate Location/Type
01:22PM 9.1060 -79.3640 32° Northeast 180 207 1,700  Level FlightAware
01:22PM 9.1110 -79.3520 67° East 177 204 2,400 2,760 Climbing FlightAware
01:23PM 9.1120 -79.3240 88° East 182 209 4,000 1,260 Climbing FlightAware
01:23PM 9.1130 -79.2760 89° East 255 293 4,100 60 Climbing FlightAware
01:24PM 9.1200 -79.2390 79° East 265 305 4,100 1,080 Level FlightAware
01:24PM 9.1390 -79.2070 59° Northeast 270 311 5,200 2,940 Climbing FlightAware
01:25PM 9.1560 -79.1810 56° Northeast 268 308 6,800 3,480 Climbing FlightAware
01:25PM 9.1780 -79.1490 55° Northeast 275 316 8,400 3,000 Climbing FlightAware
01:26PM 9.2030 -79.1310 35° Northeast 283 326 9,600 2,460 Climbing FlightAware
01:26PM 9.2540 -79.0920 37° Northeast 308 354 11,300 1,980 Climbing FlightAware
01:27PM 9.2980 -79.0600 36° Northeast 346 398 12,300 1,980 Climbing FlightAware
01:28PM 9.3600 -79.0150 36° Northeast 368 423 14,000 2,280 Climbing FlightAware
01:28PM 9.4040 -78.9930 26° Northeast 378 435 15,200 2,460 Climbing FlightAware
01:29PM 9.4860 -78.9780 10° North 390 449 17,100 2,400 Climbing FlightAware
01:30PM 9.5600 -78.9700 North 401 461 18,600 1,980 Climbing FlightAware
01:30PM 9.6340 -78.9620 North 405 466 19,800 1,920 Climbing FlightAware
01:31PM 9.7230 -78.9540 North 421 484 21,400 2,040 Climbing FlightAware
01:32PM 9.8000 -78.9470 North 419 482 22,700 1,800 Climbing FlightAware
01:33PM 9.8890 -78.9380 North 437 503 24,000 1,620 Climbing FlightAware
01:33PM 9.9730 -78.9390 359° North 438 504 25,000 1,560 Climbing FlightAware
01:34PM 10.0540 -78.9490 353° North 442 509 26,100 1,560 Climbing FlightAware
01:34PM 10.1290 -78.9560 355° North 438 504 27,000 1,560 Climbing FlightAware
01:35PM 10.1800 -78.9540 North 437 503 27,700 1,260 Climbing FlightAware
01:36PM 10.2590 -78.9310 16° North 440 506 28,400 960 Climbing FlightAware
01:37PM 10.3470 -78.7250 90° East 471 542 30,200 1,200 Climbing FlightAware
01:38PM 10.2604 -78.7170 90° East  Level Estimated
01:40PM 10.3465 -78.5019 90° East  Level Estimated
01:40PM 10.3060 -78.4210 90° East 459 528 33,600  Level FlightAware
01:42PM 10.3062 -78.2342 90° East  Level Estimated
01:42PM 10.2680 -78.1410 90° East 442 509 36,600  Level FlightAware
01:44PM 10.2390 -77.9340 98° East 438 504 38,100 720 Climbing FlightAware
01:45PM 10.2150 -77.7610 98° East 440 506 38,900 360 Climbing FlightAware
01:46PM 10.2020 -77.6670 98° East 446 513 39,000 60 Climbing FlightAware
01:47PM 10.1910 -77.5890 98° East 447 514 39,000  Level FlightAware
01:47PM 10.1780 -77.4990 98° East 447 514 39,000  Level FlightAware
01:48PM 10.1650 -77.4040 98° East 449 517 39,000  Level FlightAware
01:49PM 10.1540 -77.3220 98° East 451 519 39,000  Level FlightAware
01:49PM 10.1400 -77.2260 98° East 451 519 39,000  Level FlightAware
01:50PM 10.1290 -77.1440 98° East 449 517 39,000  Level FlightAware
01:51PM 10.1170 -77.0590 98° East 448 516 39,000  Level FlightAware
01:51PM 10.1030 -76.9670 99° East 448 516 39,000  Level FlightAware
01:52PM 10.0910 -76.8810 98° East 449 517 39,000  Level FlightAware
01:53PM 10.0800 -76.7980 98° East 450 518 39,000  Level FlightAware
01:54PM 10.0670 -76.7080 98° East 452 520 39,000  Level FlightAware
01:54PM 10.0560 -76.6300 98° East 454 522 39,000  Level FlightAware
01:55PM 10.0440 -76.5460 98° East 455 524 39,000  Level FlightAware
01:56PM 10.0290 -76.4430 98° East 454 522 39,000  Level FlightAware
01:56PM 10.0160 -76.3550 99° East 454 522 39,000  Level FlightAware
01:57PM 10.0030 -76.2640 98° East 453 521 39,000  Level FlightAware
01:58PM 9.9920 -76.1820 98° East 452 520 39,000  Level FlightAware
01:58PM 9.9780 -76.0880 99° East 450 518 39,000  Level FlightAware
01:59PM 9.9650 -76.0000 99° East 450 518 39,000  Level FlightAware
02:00PM 9.9550 -75.9280 98° East 448 516 39,000  Level FlightAware
02:00PM 9.9460 -75.8570 97° East 448 516 39,000  Level FlightAware
02:01PM 9.9310 -75.7660 99° East 446 513 39,000  Level FlightAware
02:02PM 9.9180 -75.6670 98° East 446 513 39,000  Level FlightAware
02:03PM 9.9080 -75.5960 98° East 446 513 39,000  Level FlightAware
02:03PM 9.8980 -75.5260 98° East 446 513 39,000  Level FlightAware
02:04PM 9.8880 -75.4550 98° East 446 513 39,000  Level FlightAware
02:05PM 9.8790 -75.3850 97° East 446 513 39,000  Level FlightAware
02:05PM 9.8660 -75.2970 99° East 446 513 39,000  Level FlightAware
02:06PM 9.8570 -75.2260 97° East 446 513 39,000  Level FlightAware
02:07PM 9.8470 -75.1560 98° East 446 513 39,000  Level FlightAware
02:07PM 9.8370 -75.0850 98° East 446 513 39,000  Level FlightAware
02:08PM 9.8270 -75.0150 98° East 446 513 39,000  Level FlightAware
02:09PM 9.8150 -74.9270 98° East 446 513 39,000  Level FlightAware
02:10PM 9.8050 -74.8560 98° East 446 513 39,000  Level FlightAware
02:10PM 9.7960 -74.7860 97° East 446 513 39,000  Level FlightAware
02:11PM 9.7860 -74.7150 98° East 446 513 39,000  Level FlightAware
02:14PM 9.8035 -74.4385 86° East  Level Estimated
02:15PM 9.8103 -74.3301 86° East  Level Estimated
02:16PM 9.8171 -74.2216 86° East  Level Estimated
02:17PM 9.8238 -74.1132 86° East  Level Estimated
02:18PM 9.8305 -74.0047 86° East  Level Estimated
02:19PM 9.8372 -73.8963 86° East  Level Estimated
02:20PM 9.8438 -73.7878 86° East  Level Estimated
02:21PM 9.8504 -73.6794 86° East  Level Estimated
02:22PM 9.8570 -73.5709 86° East  Level Estimated
02:23PM 9.8635 -73.4624 86° East  Level Estimated
02:24PM 9.8700 -73.3539 87° East  Level Estimated
02:25PM 9.8764 -73.2455 87° East  Level Estimated
02:26PM 9.8829 -73.1370 87° East  Level Estimated
02:27PM 9.8892 -73.0285 87° East  Level Estimated
02:28PM 9.8956 -72.9200 87° East  Level Estimated
02:29PM 9.9019 -72.8115 87° East  Level Estimated
02:30PM 9.9082 -72.7030 87° East  Level Estimated
02:31PM 9.9144 -72.5945 87° East  Level Estimated
02:32PM 9.9207 -72.4860 87° East  Level Estimated
02:33PM 9.9268 -72.3775 87° East  Level Estimated
02:34PM 9.9330 -72.2690 87° East  Level Estimated
02:35PM 9.9391 -72.1604 87° East  Level Estimated
02:36PM 9.9452 -72.0519 87° East  Level Estimated
02:37PM 9.9512 -71.9434 87° East  Level Estimated
02:38PM 9.9572 -71.8348 87° East  Level Estimated
02:39PM 9.9632 -71.7263 87° East  Level Estimated
02:40PM 9.9691 -71.6178 87° East  Level Estimated
02:41PM 9.9750 -71.5092 87° East  Level Estimated
02:42PM 9.9809 -71.4007 87° East  Level Estimated
02:43PM 9.9867 -71.2921 87° East  Level Estimated
02:44PM 9.9925 -71.1835 87° East  Level Estimated
02:45PM 9.9982 -71.0750 87° East  Level Estimated
02:46PM 10.0040 -70.9664 87° East  Level Estimated
02:47PM 10.0097 -70.8578 87° East  Level Estimated
02:48PM 10.0153 -70.7493 87° East  Level Estimated
02:49PM 10.0209 -70.6407 87° East  Level Estimated
02:50PM 10.0265 -70.5321 87° East  Level Estimated
02:51PM 10.0321 -70.4235 87° East  Level Estimated
02:52PM 10.0376 -70.3149 87° East  Level Estimated
02:53PM 10.0430 -70.2064 87° East  Level Estimated
02:54PM 10.0485 -70.0978 87° East  Level Estimated
02:55PM 10.0539 -69.9892 87° East  Level Estimated
02:56PM 10.0593 -69.8806 87° East  Level Estimated
02:57PM 10.0646 -69.7719 87° East  Level Estimated
02:58PM 10.0699 -69.6633 87° East  Level Estimated
02:59PM 10.0752 -69.5547 87° East  Level Estimated
03:00PM 10.0804 -69.4461 87° East  Level Estimated
03:01PM 10.0856 -69.3375 87° East  Level Estimated
03:02PM 10.0907 -69.2289 87° East  Level Estimated
03:03PM 10.0959 -69.1202 87° East  Level Estimated
03:04PM 10.1010 -69.0116 87° East  Level Estimated
03:05PM 10.1060 -68.9030 87° East  Level Estimated
03:06PM 10.1110 -68.7943 87° East  Level Estimated
03:07PM 10.1160 -68.6857 87° East  Level Estimated
03:08PM 10.1209 -68.5771 87° East  Level Estimated
03:09PM 10.1259 -68.4684 87° East  Level Estimated
03:10PM 10.1307 -68.3598 87° East  Level Estimated
03:11PM 10.1356 -68.2511 87° East  Level Estimated
03:12PM 10.1404 -68.1424 87° East  Level Estimated
03:13PM 10.1451 -68.0338 87° East  Level Estimated
03:14PM 10.1497 -67.9284 87° East  Level Estimated
03:15PM 10.1497 -67.9284 North  Level Estimated
03:16PM 10.1497 -67.9284 North  Level Estimated
03:17PM 10.1497 -67.9284 North  Level Estimated
03:18PM 10.1497 -67.9284 North  Level Estimated
03:19PM 10.1497 -67.9284 North  Level Estimated
03:20PM 10.1497 -67.9284 North  Level Estimated
03:21PM 10.1497 -67.9284 North  Level Estimated
03:22PM 10.1497 -67.9284 North  Level Estimated
03:23PM 10.1497 -67.9284 North  Level Estimated
03:24PM 10.1497 -67.9284 North  Level Estimated